sensor_id;sensor_type;location;lat;lon;timestamp;pressure;altitude;pressure_sealevel;temperature;humidity
55675;BME280;41562;44.330;23.802;2023-01-28T00:01:15;99881.53;;;2.23;100.00
55675;BME280;41562;44.330;23.802;2023-01-28T00:03:42;99885.16;;;2.11;100.00
55675;BME280;41562;44.330;23.802;2023-01-28T00:06:14;99880.34;;;2.08;100.00
55675;BME280;41562;44.330;23.802;2023-01-28T00:08:41;99881.91;;;1.97;100.00
55675;BME280;41562;44.330;23.802;2023-01-28T00:11:11;99883.53;;;2.10;100.00
55675;BME280;41562;44.330;23.802;2023-01-28T00:13:44;99884.34;;;2.10;100.00
55675;BME280;41562;44.330;23.802;2023-01-28T00:16:11;99885.63;;;2.08;100.00
55675;BME280;41562;44.330;23.802;2023-01-28T00:18:38;99893.44;;;2.14;100.00
55675;BME280;41562;44.330;23.802;2023-01-28T00:21:13;99892.50;;;2.09;100.00
55675;BME280;41562;44.330;23.802;2023-01-28T00:23:42;99891.16;;;2.18;100.00
55675;BME280;41562;44.330;23.802;2023-01-28T00:26:13;99893.94;;;1.93;100.00
55675;BME280;41562;44.330;23.802;2023-01-28T00:28:47;99902.69;;;2.05;100.00
55675;BME280;41562;44.330;23.802;2023-01-28T00:31:17;99901.34;;;2.14;100.00
55675;BME280;41562;44.330;23.802;2023-01-28T00:33:47;99899.84;;;2.07;100.00
55675;BME280;41562;44.330;23.802;2023-01-28T00:36:18;99901.88;;;2.05;100.00
55675;BME280;41562;44.330;23.802;2023-01-28T00:38:56;99904.47;;;1.93;100.00
55675;BME280;41562;44.330;23.802;2023-01-28T00:41:28;99902.66;;;1.75;100.00
55675;BME280;41562;44.330;23.802;2023-01-28T00:43:56;99892.84;;;1.82;100.00
55675;BME280;41562;44.330;23.802;2023-01-28T00:46:24;99899.72;;;1.65;100.00
55675;BME280;41562;44.330;23.802;2023-01-28T00:48:51;99907.88;;;1.82;100.00
55675;BME280;41562;44.330;23.802;2023-01-28T00:51:21;99912.63;;;1.73;100.00
55675;BME280;41562;44.330;23.802;2023-01-28T00:54:03;99910.38;;;1.77;100.00
55675;BME280;41562;44.330;23.802;2023-01-28T00:56:33;99908.97;;;1.74;100.00
55675;BME280;41562;44.330;23.802;2023-01-28T00:59:02;99904.50;;;1.75;100.00
55675;BME280;41562;44.330;23.802;2023-01-28T01:01:37;99910.13;;;1.78;100.00
55675;BME280;41562;44.330;23.802;2023-01-28T01:04:07;99914.59;;;1.78;100.00
55675;BME280;41562;44.330;23.802;2023-01-28T01:06:38;99917.28;;;1.71;100.00
55675;BME280;41562;44.330;23.802;2023-01-28T01:09:10;99919.66;;;1.61;100.00
55675;BME280;41562;44.330;23.802;2023-01-28T01:11:37;99921.97;;;1.87;100.00
55675;BME280;41562;44.330;23.802;2023-01-28T01:14:05;99924.25;;;1.84;100.00
55675;BME280;41562;44.330;23.802;2023-01-28T01:16:32;99919.63;;;1.79;100.00
55675;BME280;41562;44.330;23.802;2023-01-28T01:19:01;99927.13;;;1.82;100.00
55675;BME280;41562;44.330;23.802;2023-01-28T01:21:29;99929.66;;;1.89;100.00
55675;BME280;41562;44.330;23.802;2023-01-28T01:23:56;99928.50;;;1.85;100.00
55675;BME280;41562;44.330;23.802;2023-01-28T01:26:33;99923.63;;;1.70;100.00
55675;BME280;41562;44.330;23.802;2023-01-28T01:29:03;99925.38;;;1.58;100.00
55675;BME280;41562;44.330;23.802;2023-01-28T01:31:35;99926.88;;;1.66;100.00
55675;BME280;41562;44.330;23.802;2023-01-28T01:34:02;99930.25;;;1.73;100.00
55675;BME280;41562;44.330;23.802;2023-01-28T01:36:30;99928.00;;;1.76;100.00
55675;BME280;41562;44.330;23.802;2023-01-28T01:38:57;99937.59;;;1.71;100.00
55675;BME280;41562;44.330;23.802;2023-01-28T01:41:28;99938.84;;;1.68;100.00
55675;BME280;41562;44.330;23.802;2023-01-28T01:46:36;99945.19;;;1.60;100.00
55675;BME280;41562;44.330;23.802;2023-01-28T01:49:16;99943.72;;;1.46;100.00
55675;BME280;41562;44.330;23.802;2023-01-28T01:51:49;99939.84;;;1.49;100.00
55675;BME280;41562;44.330;23.802;2023-01-28T01:54:17;99943.22;;;1.56;100.00
55675;BME280;41562;44.330;23.802;2023-01-28T01:56:49;99943.28;;;1.68;100.00
55675;BME280;41562;44.330;23.802;2023-01-28T01:59:22;99947.16;;;1.65;100.00
55675;BME280;41562;44.330;23.802;2023-01-28T02:01:51;99940.88;;;1.66;100.00
55675;BME280;41562;44.330;23.802;2023-01-28T02:04:28;99948.28;;;1.57;100.00
55675;BME280;41562;44.330;23.802;2023-01-28T02:06:59;99949.66;;;1.60;100.00
55675;BME280;41562;44.330;23.802;2023-01-28T02:09:32;99952.16;;;1.55;100.00
55675;BME280;41562;44.330;23.802;2023-01-28T02:12:07;99950.72;;;1.34;100.00
55675;BME280;41562;44.330;23.802;2023-01-28T02:15:08;99962.16;;;1.46;100.00
55675;BME280;41562;44.330;23.802;2023-01-28T02:17:37;99955.78;;;1.36;100.00
55675;BME280;41562;44.330;23.802;2023-01-28T02:20:08;99958.75;;;1.21;100.00
55675;BME280;41562;44.330;23.802;2023-01-28T02:31:00;99953.03;;;0.81;100.00
55675;BME280;41562;44.330;23.802;2023-01-28T02:34:05;99953.25;;;1.04;100.00
55675;BME280;41562;44.330;23.802;2023-01-28T02:39:23;99962.84;;;1.17;100.00
55675;BME280;41562;44.330;23.802;2023-01-28T02:42:16;99954.91;;;1.24;100.00
55675;BME280;41562;44.330;23.802;2023-01-28T02:44:44;99954.97;;;1.35;100.00
55675;BME280;41562;44.330;23.802;2023-01-28T02:47:13;99954.28;;;1.21;100.00
55675;BME280;41562;44.330;23.802;2023-01-28T02:49:49;99956.78;;;1.16;100.00
55675;BME280;41562;44.330;23.802;2023-01-28T02:52:55;99958.41;;;1.17;100.00
55675;BME280;41562;44.330;23.802;2023-01-28T03:02:09;99946.88;;;1.37;100.00
55675;BME280;41562;44.330;23.802;2023-01-28T03:05:08;99946.28;;;1.35;100.00
55675;BME280;41562;44.330;23.802;2023-01-28T03:07:44;99939.09;;;1.24;100.00
55675;BME280;41562;44.330;23.802;2023-01-28T03:10:20;99934.78;;;1.29;100.00
55675;BME280;41562;44.330;23.802;2023-01-28T03:12:50;99936.75;;;1.52;100.00
55675;BME280;41562;44.330;23.802;2023-01-28T03:15:26;99944.44;;;1.35;100.00
55675;BME280;41562;44.330;23.802;2023-01-28T03:18:17;99935.59;;;1.48;100.00
55675;BME280;41562;44.330;23.802;2023-01-28T03:23:42;99945.25;;;1.72;100.00
55675;BME280;41562;44.330;23.802;2023-01-28T03:26:13;99949.28;;;1.75;100.00
55675;BME280;41562;44.330;23.802;2023-01-28T03:28:44;99948.28;;;1.57;100.00
55675;BME280;41562;44.330;23.802;2023-01-28T03:31:14;99948.03;;;1.59;100.00
55675;BME280;41562;44.330;23.802;2023-01-28T03:33:43;99946.31;;;1.89;100.00
55675;BME280;41562;44.330;23.802;2023-01-28T03:36:10;99949.66;;;1.78;100.00
55675;BME280;41562;44.330;23.802;2023-01-28T03:38:40;99944.59;;;1.58;100.00
55675;BME280;41562;44.330;23.802;2023-01-28T03:41:10;99958.50;;;1.66;100.00
55675;BME280;41562;44.330;23.802;2023-01-28T03:43:42;99949.16;;;1.88;100.00
55675;BME280;41562;44.330;23.802;2023-01-28T03:46:13;99962.03;;;1.78;100.00
55675;BME280;41562;44.330;23.802;2023-01-28T03:48:42;99957.13;;;1.63;100.00
55675;BME280;41562;44.330;23.802;2023-01-28T03:51:13;99957.28;;;1.50;100.00
55675;BME280;41562;44.330;23.802;2023-01-28T03:53:40;99950.13;;;1.57;100.00
55675;BME280;41562;44.330;23.802;2023-01-28T03:56:09;99957.69;;;1.65;100.00
55675;BME280;41562;44.330;23.802;2023-01-28T03:58:37;99950.66;;;1.23;100.00
55675;BME280;41562;44.330;23.802;2023-01-28T04:01:07;99947.09;;;1.35;100.00
55675;BME280;41562;44.330;23.802;2023-01-28T04:03:34;99953.16;;;1.54;100.00
55675;BME280;41562;44.330;23.802;2023-01-28T04:06:04;99954.03;;;1.48;100.00
55675;BME280;41562;44.330;23.802;2023-01-28T04:08:35;99967.34;;;1.35;100.00
55675;BME280;41562;44.330;23.802;2023-01-28T04:11:02;99972.75;;;1.40;100.00
55675;BME280;41562;44.330;23.802;2023-01-28T04:13:29;99968.91;;;1.60;100.00
55675;BME280;41562;44.330;23.802;2023-01-28T04:15:56;99972.81;;;1.58;100.00
55675;BME280;41562;44.330;23.802;2023-01-28T04:18:23;99976.72;;;1.49;100.00
55675;BME280;41562;44.330;23.802;2023-01-28T04:20:53;99980.03;;;1.44;100.00
55675;BME280;41562;44.330;23.802;2023-01-28T04:23:20;99968.97;;;1.54;100.00
55675;BME280;41562;44.330;23.802;2023-01-28T04:25:53;99978.50;;;1.55;100.00
55675;BME280;41562;44.330;23.802;2023-01-28T04:28:21;99980.41;;;1.66;100.00
55675;BME280;41562;44.330;23.802;2023-01-28T04:30:58;99985.38;;;1.56;100.00
55675;BME280;41562;44.330;23.802;2023-01-28T04:33:28;99981.34;;;1.72;100.00
55675;BME280;41562;44.330;23.802;2023-01-28T04:35:58;99988.22;;;1.73;100.00
55675;BME280;41562;44.330;23.802;2023-01-28T04:38:30;99986.34;;;6.48;100.00
55675;BME280;41562;44.330;23.802;2023-01-28T04:41:00;100001.03;;;7.51;97.40
55675;BME280;41562;44.330;23.802;2023-01-28T04:43:30;100004.97;;;8.53;87.85
55675;BME280;41562;44.330;23.802;2023-01-28T04:45:59;100007.72;;;9.34;86.48
55675;BME280;41562;44.330;23.802;2023-01-28T04:48:26;100003.94;;;9.55;83.67
55675;BME280;41562;44.330;23.802;2023-01-28T04:50:54;100007.97;;;9.02;77.83
55675;BME280;41562;44.330;23.802;2023-01-28T04:53:21;100007.84;;;8.31;83.58
55675;BME280;41562;44.330;23.802;2023-01-28T04:55:50;100002.94;;;4.44;97.58
55675;BME280;41562;44.330;23.802;2023-01-28T04:58:17;100012.91;;;6.26;99.04
55675;BME280;41562;44.330;23.802;2023-01-28T05:00:58;100010.53;;;5.48;99.03
55675;BME280;41562;44.330;23.802;2023-01-28T05:03:29;100001.06;;;4.57;100.00
55675;BME280;41562;44.330;23.802;2023-01-28T05:06:02;100010.84;;;3.64;100.00
55675;BME280;41562;44.330;23.802;2023-01-28T05:08:29;100010.22;;;4.09;100.00
55675;BME280;41562;44.330;23.802;2023-01-28T05:10:57;100010.88;;;5.56;100.00
55675;BME280;41562;44.330;23.802;2023-01-28T05:13:29;100021.94;;;5.15;100.00
55675;BME280;41562;44.330;23.802;2023-01-28T05:15:57;100026.66;;;4.96;100.00
55675;BME280;41562;44.330;23.802;2023-01-28T05:18:27;100031.31;;;3.46;100.00
55675;BME280;41562;44.330;23.802;2023-01-28T05:20:58;100030.38;;;2.75;100.00
55675;BME280;41562;44.330;23.802;2023-01-28T05:23:32;100034.38;;;2.18;100.00
55675;BME280;41562;44.330;23.802;2023-01-28T05:26:03;100032.63;;;1.94;100.00
55675;BME280;41562;44.330;23.802;2023-01-28T05:28:31;100027.28;;;2.00;100.00
55675;BME280;41562;44.330;23.802;2023-01-28T05:31:11;100030.47;;;2.02;100.00
55675;BME280;41562;44.330;23.802;2023-01-28T05:33:41;100033.84;;;1.91;100.00
55675;BME280;41562;44.330;23.802;2023-01-28T05:36:10;100044.19;;;1.93;100.00
55675;BME280;41562;44.330;23.802;2023-01-28T05:38:40;100041.47;;;1.81;100.00
55675;BME280;41562;44.330;23.802;2023-01-28T05:41:07;100041.91;;;1.96;100.00
55675;BME280;41562;44.330;23.802;2023-01-28T05:43:45;100038.69;;;1.76;100.00
55675;BME280;41562;44.330;23.802;2023-01-28T05:46:13;100043.50;;;1.79;100.00
55675;BME280;41562;44.330;23.802;2023-01-28T05:48:43;100048.34;;;1.64;100.00
55675;BME280;41562;44.330;23.802;2023-01-28T05:51:13;100053.84;;;1.81;100.00
55675;BME280;41562;44.330;23.802;2023-01-28T05:53:56;100052.44;;;1.78;100.00
55675;BME280;41562;44.330;23.802;2023-01-28T05:56:23;100050.31;;;1.69;100.00
55675;BME280;41562;44.330;23.802;2023-01-28T05:58:50;100048.28;;;1.89;100.00
55675;BME280;41562;44.330;23.802;2023-01-28T06:01:31;100040.59;;;1.69;100.00
55675;BME280;41562;44.330;23.802;2023-01-28T06:04:00;100042.06;;;1.83;100.00
55675;BME280;41562;44.330;23.802;2023-01-28T06:06:34;100041.34;;;1.76;100.00
55675;BME280;41562;44.330;23.802;2023-01-28T06:09:03;100049.94;;;1.65;100.00
55675;BME280;41562;44.330;23.802;2023-01-28T06:11:35;100054.38;;;1.65;100.00
55675;BME280;41562;44.330;23.802;2023-01-28T06:14:32;100058.50;;;1.60;100.00
55675;BME280;41562;44.330;23.802;2023-01-28T06:16:59;100055.78;;;1.67;100.00
55675;BME280;41562;44.330;23.802;2023-01-28T06:19:29;100063.59;;;1.80;100.00
55675;BME280;41562;44.330;23.802;2023-01-28T06:22:05;100062.38;;;1.58;100.00
55675;BME280;41562;44.330;23.802;2023-01-28T06:24:36;100061.84;;;1.49;100.00
55675;BME280;41562;44.330;23.802;2023-01-28T06:27:05;100066.47;;;1.54;100.00
55675;BME280;41562;44.330;23.802;2023-01-28T06:29:35;100073.91;;;1.39;100.00
55675;BME280;41562;44.330;23.802;2023-01-28T06:32:05;100071.22;;;1.45;100.00
55675;BME280;41562;44.330;23.802;2023-01-28T06:34:41;100074.69;;;1.64;100.00
55675;BME280;41562;44.330;23.802;2023-01-28T06:37:21;100078.06;;;1.46;100.00
55675;BME280;41562;44.330;23.802;2023-01-28T06:39:52;100083.22;;;1.59;100.00
55675;BME280;41562;44.330;23.802;2023-01-28T06:42:31;100081.66;;;1.52;100.00
55675;BME280;41562;44.330;23.802;2023-01-28T06:45:00;100074.81;;;1.51;100.00
55675;BME280;41562;44.330;23.802;2023-01-28T06:47:31;100076.94;;;1.60;100.00
55675;BME280;41562;44.330;23.802;2023-01-28T06:49:58;100078.75;;;1.60;100.00
55675;BME280;41562;44.330;23.802;2023-01-28T06:52:25;100083.66;;;1.56;100.00
55675;BME280;41562;44.330;23.802;2023-01-28T06:55:01;100088.13;;;1.56;100.00
55675;BME280;41562;44.330;23.802;2023-01-28T06:57:31;100100.56;;;1.49;100.00
55675;BME280;41562;44.330;23.802;2023-01-28T07:00:04;100101.78;;;1.46;100.00
55675;BME280;41562;44.330;23.802;2023-01-28T07:02:31;100108.28;;;1.69;100.00
55675;BME280;41562;44.330;23.802;2023-01-28T07:04:59;100110.16;;;1.61;100.00
55675;BME280;41562;44.330;23.802;2023-01-28T07:07:28;100116.28;;;1.31;100.00
55675;BME280;41562;44.330;23.802;2023-01-28T07:09:55;100110.06;;;1.50;100.00
55675;BME280;41562;44.330;23.802;2023-01-28T07:12:28;100103.94;;;1.56;100.00
55675;BME280;41562;44.330;23.802;2023-01-28T07:14:58;100114.78;;;1.66;100.00
55675;BME280;41562;44.330;23.802;2023-01-28T07:17:26;100110.31;;;1.67;100.00
55675;BME280;41562;44.330;23.802;2023-01-28T07:20:00;100108.81;;;1.52;100.00
55675;BME280;41562;44.330;23.802;2023-01-28T07:22:32;100116.25;;;1.62;100.00
55675;BME280;41562;44.330;23.802;2023-01-28T07:24:59;100121.69;;;1.67;100.00
55675;BME280;41562;44.330;23.802;2023-01-28T07:27:31;100128.13;;;1.46;100.00
55675;BME280;41562;44.330;23.802;2023-01-28T07:30:02;100116.72;;;1.52;100.00
55675;BME280;41562;44.330;23.802;2023-01-28T07:32:30;100127.84;;;1.54;100.00
55675;BME280;41562;44.330;23.802;2023-01-28T07:34:59;100127.97;;;1.66;100.00
55675;BME280;41562;44.330;23.802;2023-01-28T07:37:26;100126.53;;;1.70;100.00
55675;BME280;41562;44.330;23.802;2023-01-28T07:39:53;100128.97;;;1.65;100.00
55675;BME280;41562;44.330;23.802;2023-01-28T07:42:20;100142.81;;;1.85;100.00
55675;BME280;41562;44.330;23.802;2023-01-28T07:44:53;100137.22;;;1.75;100.00
55675;BME280;41562;44.330;23.802;2023-01-28T07:47:23;100144.28;;;1.81;100.00
55675;BME280;41562;44.330;23.802;2023-01-28T07:49:53;100143.47;;;1.81;100.00
55675;BME280;41562;44.330;23.802;2023-01-28T07:52:20;100145.94;;;2.00;100.00
55675;BME280;41562;44.330;23.802;2023-01-28T07:54:53;100146.41;;;1.91;100.00
55675;BME280;41562;44.330;23.802;2023-01-28T07:57:20;100141.19;;;1.84;100.00
55675;BME280;41562;44.330;23.802;2023-01-28T07:59:48;100144.38;;;1.93;100.00
55675;BME280;41562;44.330;23.802;2023-01-28T08:02:18;100148.41;;;1.95;100.00
55675;BME280;41562;44.330;23.802;2023-01-28T08:04:45;100153.44;;;1.97;100.00
55675;BME280;41562;44.330;23.802;2023-01-28T08:07:12;100149.84;;;1.91;100.00
55675;BME280;41562;44.330;23.802;2023-01-28T08:09:40;100153.84;;;2.00;100.00
55675;BME280;41562;44.330;23.802;2023-01-28T08:12:08;100158.25;;;2.07;100.00
55675;BME280;41562;44.330;23.802;2023-01-28T08:14:35;100157.53;;;1.93;100.00
55675;BME280;41562;44.330;23.802;2023-01-28T08:17:03;100165.63;;;1.73;100.00
55675;BME280;41562;44.330;23.802;2023-01-28T08:19:30;100165.66;;;1.91;100.00
55675;BME280;41562;44.330;23.802;2023-01-28T08:21:57;100162.31;;;2.02;100.00
55675;BME280;41562;44.330;23.802;2023-01-28T08:24:24;100169.22;;;2.22;100.00
55675;BME280;41562;44.330;23.802;2023-01-28T08:26:52;100174.28;;;2.05;100.00
55675;BME280;41562;44.330;23.802;2023-01-28T08:29:19;100174.97;;;1.94;100.00
55675;BME280;41562;44.330;23.802;2023-01-28T08:31:46;100176.19;;;2.16;100.00
55675;BME280;41562;44.330;23.802;2023-01-28T08:34:14;100177.72;;;2.06;100.00
55675;BME280;41562;44.330;23.802;2023-01-28T08:36:42;100181.97;;;2.07;100.00
55675;BME280;41562;44.330;23.802;2023-01-28T08:39:09;100181.69;;;2.15;100.00
55675;BME280;41562;44.330;23.802;2023-01-28T08:41:37;100183.75;;;2.13;100.00
55675;BME280;41562;44.330;23.802;2023-01-28T08:44:04;100181.94;;;2.31;100.00
55675;BME280;41562;44.330;23.802;2023-01-28T08:46:31;100184.38;;;2.33;100.00
55675;BME280;41562;44.330;23.802;2023-01-28T08:48:59;100186.38;;;2.13;100.00
55675;BME280;41562;44.330;23.802;2023-01-28T08:51:26;100178.59;;;1.99;100.00
55675;BME280;41562;44.330;23.802;2023-01-28T08:53:53;100179.69;;;2.10;100.00
55675;BME280;41562;44.330;23.802;2023-01-28T08:56:21;100179.47;;;2.12;100.00
55675;BME280;41562;44.330;23.802;2023-01-28T08:58:48;100183.69;;;2.19;100.00
55675;BME280;41562;44.330;23.802;2023-01-28T09:01:16;100180.44;;;2.17;100.00
55675;BME280;41562;44.330;23.802;2023-01-28T09:03:43;100180.38;;;2.24;100.00
55675;BME280;41562;44.330;23.802;2023-01-28T09:06:11;100177.88;;;2.29;100.00
55675;BME280;41562;44.330;23.802;2023-01-28T09:08:39;100180.38;;;2.24;100.00
55675;BME280;41562;44.330;23.802;2023-01-28T09:11:07;100178.28;;;2.32;100.00
55675;BME280;41562;44.330;23.802;2023-01-28T09:13:34;100185.53;;;2.37;100.00
55675;BME280;41562;44.330;23.802;2023-01-28T09:16:04;100190.56;;;2.20;100.00
55675;BME280;41562;44.330;23.802;2023-01-28T09:18:31;100188.91;;;2.26;100.00
55675;BME280;41562;44.330;23.802;2023-01-28T09:20:58;100194.16;;;2.26;100.00
55675;BME280;41562;44.330;23.802;2023-01-28T09:23:26;100192.84;;;2.35;100.00
55675;BME280;41562;44.330;23.802;2023-01-28T09:25:59;100194.91;;;2.33;100.00
55675;BME280;41562;44.330;23.802;2023-01-28T09:28:26;100192.69;;;2.30;100.00
55675;BME280;41562;44.330;23.802;2023-01-28T09:31:06;100192.69;;;2.30;100.00
55675;BME280;41562;44.330;23.802;2023-01-28T09:33:35;100189.59;;;2.58;100.00
55675;BME280;41562;44.330;23.802;2023-01-28T09:36:04;100192.16;;;2.46;100.00
55675;BME280;41562;44.330;23.802;2023-01-28T09:38:32;100199.38;;;2.32;100.00
55675;BME280;41562;44.330;23.802;2023-01-28T09:41:01;100192.44;;;2.38;100.00
55675;BME280;41562;44.330;23.802;2023-01-28T09:46:14;100187.41;;;2.30;100.00
55675;BME280;41562;44.330;23.802;2023-01-28T09:48:45;100185.53;;;2.37;100.00
55675;BME280;41562;44.330;23.802;2023-01-28T09:51:40;100189.78;;;2.38;100.00
55675;BME280;41562;44.330;23.802;2023-01-28T09:54:34;100194.78;;;2.46;100.00
55675;BME280;41562;44.330;23.802;2023-01-28T09:57:13;100198.00;;;2.48;100.00
55675;BME280;41562;44.330;23.802;2023-01-28T09:59:44;100195.59;;;2.47;100.00
55675;BME280;41562;44.330;23.802;2023-01-28T10:02:41;100187.44;;;2.48;100.00
55675;BME280;41562;44.330;23.802;2023-01-28T10:08:05;100192.66;;;2.55;100.00
55675;BME280;41562;44.330;23.802;2023-01-28T10:10:43;100194.53;;;2.48;100.00
55675;BME280;41562;44.330;23.802;2023-01-28T10:18:33;100183.34;;;2.52;100.00
55675;BME280;41562;44.330;23.802;2023-01-28T10:21:09;100187.50;;;2.60;100.00
55675;BME280;41562;44.330;23.802;2023-01-28T10:23:47;100189.38;;;2.77;100.00
55675;BME280;41562;44.330;23.802;2023-01-28T10:26:29;100188.69;;;2.82;100.00
55675;BME280;41562;44.330;23.802;2023-01-28T10:29:03;100194.03;;;2.75;100.00
55675;BME280;41562;44.330;23.802;2023-01-28T10:31:35;100187.44;;;2.66;100.00
55675;BME280;41562;44.330;23.802;2023-01-28T10:34:05;100187.16;;;2.74;100.00
55675;BME280;41562;44.330;23.802;2023-01-28T10:36:33;100184.78;;;2.66;100.00
55675;BME280;41562;44.330;23.802;2023-01-28T10:39:01;100183.22;;;2.65;100.00
55675;BME280;41562;44.330;23.802;2023-01-28T10:41:29;100186.06;;;2.82;100.00
55675;BME280;41562;44.330;23.802;2023-01-28T10:43:56;100181.78;;;2.81;100.00
55675;BME280;41562;44.330;23.802;2023-01-28T10:46:32;100183.84;;;2.79;100.00
55675;BME280;41562;44.330;23.802;2023-01-28T10:49:17;100182.00;;;2.79;100.00
55675;BME280;41562;44.330;23.802;2023-01-28T10:51:45;100182.69;;;2.75;100.00
55675;BME280;41562;44.330;23.802;2023-01-28T10:54:27;100184.13;;;2.89;100.00
55675;BME280;41562;44.330;23.802;2023-01-28T10:56:58;100189.19;;;2.72;100.00
55675;BME280;41562;44.330;23.802;2023-01-28T10:59:32;100179.06;;;2.88;100.00
55675;BME280;41562;44.330;23.802;2023-01-28T11:04:45;100177.28;;;3.00;100.00
55675;BME280;41562;44.330;23.802;2023-01-28T11:07:18;100183.16;;;3.02;100.00
55675;BME280;41562;44.330;23.802;2023-01-28T11:09:48;100184.75;;;3.21;100.00
55675;BME280;41562;44.330;23.802;2023-01-28T11:15:02;100181.09;;;3.22;100.00
55675;BME280;41562;44.330;23.802;2023-01-28T11:17:35;100180.41;;;3.27;100.00
55675;BME280;41562;44.330;23.802;2023-01-28T11:20:16;100175.78;;;3.22;100.00
55675;BME280;41562;44.330;23.802;2023-01-28T11:22:45;100181.25;;;3.39;100.00
55675;BME280;41562;44.330;23.802;2023-01-28T11:27:54;100176.09;;;3.44;100.00
55675;BME280;41562;44.330;23.802;2023-01-28T11:30:34;100173.53;;;3.37;100.00
55675;BME280;41562;44.330;23.802;2023-01-28T11:33:21;100169.44;;;3.53;100.00
55675;BME280;41562;44.330;23.802;2023-01-28T11:36:02;100169.75;;;3.33;100.00
55675;BME280;41562;44.330;23.802;2023-01-28T11:38:33;100168.97;;;3.44;100.00
55675;BME280;41562;44.330;23.802;2023-01-28T11:41:01;100168.16;;;3.44;100.00
55675;BME280;41562;44.330;23.802;2023-01-28T11:43:30;100166.63;;;3.36;100.00
55675;BME280;41562;44.330;23.802;2023-01-28T11:54:15;100174.47;;;3.13;100.00
55675;BME280;41562;44.330;23.802;2023-01-28T11:57:12;100164.09;;;3.00;100.00
55675;BME280;41562;44.330;23.802;2023-01-28T11:59:58;100163.81;;;2.90;100.00
55675;BME280;41562;44.330;23.802;2023-01-28T12:02:47;100161.91;;;2.97;100.00
55675;BME280;41562;44.330;23.802;2023-01-28T12:07:55;100166.31;;;3.03;100.00
55675;BME280;41562;44.330;23.802;2023-01-28T12:13:14;100162.03;;;3.02;100.00
55675;BME280;41562;44.330;23.802;2023-01-28T12:21:26;100167.16;;;3.15;100.00
55675;BME280;41562;44.330;23.802;2023-01-28T12:29:42;100165.16;;;3.10;100.00
55675;BME280;41562;44.330;23.802;2023-01-28T12:41:24;100173.75;;;3.06;100.00
55675;BME280;41562;44.330;23.802;2023-01-28T12:48:59;100171.63;;;3.14;100.00
55675;BME280;41562;44.330;23.802;2023-01-28T12:51:36;100167.75;;;2.99;100.00
55675;BME280;41562;44.330;23.802;2023-01-28T12:56:52;100166.59;;;2.95;100.00
55675;BME280;41562;44.330;23.802;2023-01-28T13:07:38;100166.50;;;3.31;100.00
55675;BME280;41562;44.330;23.802;2023-01-28T13:10:11;100179.09;;;3.17;100.00
55675;BME280;41562;44.330;23.802;2023-01-28T13:12:42;100181.50;;;3.19;100.00
55675;BME280;41562;44.330;23.802;2023-01-28T13:15:16;100171.78;;;3.31;100.00
55675;BME280;41562;44.330;23.802;2023-01-28T13:20:46;100172.59;;;3.02;100.00
55675;BME280;41562;44.330;23.802;2023-01-28T13:23:47;100185.34;;;3.05;100.00
55675;BME280;41562;44.330;23.802;2023-01-28T13:28:52;100183.25;;;2.95;100.00
55675;BME280;41562;44.330;23.802;2023-01-28T13:31:22;100183.03;;;2.97;100.00
55675;BME280;41562;44.330;23.802;2023-01-28T13:36:27;100191.53;;;2.99;100.00
55675;BME280;41562;44.330;23.802;2023-01-28T13:39:04;100187.66;;;3.01;100.00
55675;BME280;41562;44.330;23.802;2023-01-28T13:41:40;100196.38;;;3.02;100.00
55675;BME280;41562;44.330;23.802;2023-01-28T13:44:30;100191.94;;;3.14;100.00
55675;BME280;41562;44.330;23.802;2023-01-28T13:49:43;100198.13;;;3.08;100.00
55675;BME280;41562;44.330;23.802;2023-01-28T14:08:28;100207.31;;;2.69;100.00
55675;BME280;41562;44.330;23.802;2023-01-28T14:16:44;100210.53;;;2.89;100.00
55675;BME280;41562;44.330;23.802;2023-01-28T14:19:18;100206.06;;;2.90;100.00
55675;BME280;41562;44.330;23.802;2023-01-28T14:21:46;100206.63;;;2.92;100.00
55675;BME280;41562;44.330;23.802;2023-01-28T14:24:16;100208.06;;;2.76;100.00
55675;BME280;41562;44.330;23.802;2023-01-28T14:31:48;100207.59;;;2.79;100.00
55675;BME280;41562;44.330;23.802;2023-01-28T14:36:48;100210.69;;;2.76;100.00
55675;BME280;41562;44.330;23.802;2023-01-28T14:39:19;100207.75;;;2.66;100.00
55675;BME280;41562;44.330;23.802;2023-01-28T14:41:49;100208.56;;;2.66;100.00
55675;BME280;41562;44.330;23.802;2023-01-28T14:44:35;100216.03;;;2.69;100.00
55675;BME280;41562;44.330;23.802;2023-01-28T14:58:03;100220.31;;;2.70;100.00
55675;BME280;41562;44.330;23.802;2023-01-28T15:00:33;100234.38;;;2.64;100.00
55675;BME280;41562;44.330;23.802;2023-01-28T15:03:14;100225.00;;;2.68;100.00
55675;BME280;41562;44.330;23.802;2023-01-28T15:06:05;100232.81;;;4.36;100.00
55675;BME280;41562;44.330;23.802;2023-01-28T15:08:33;100241.22;;;3.38;100.00
55675;BME280;41562;44.330;23.802;2023-01-28T15:11:01;100234.66;;;3.11;100.00
55675;BME280;41562;44.330;23.802;2023-01-28T15:13:31;100236.22;;;7.28;100.00
55675;BME280;41562;44.330;23.802;2023-01-28T15:16:00;100243.69;;;4.86;100.00
55675;BME280;41562;44.330;23.802;2023-01-28T15:18:31;100253.09;;;3.89;100.00
55675;BME280;41562;44.330;23.802;2023-01-28T15:21:00;100246.25;;;5.21;100.00
55675;BME280;41562;44.330;23.802;2023-01-28T15:23:33;100259.34;;;9.40;91.43
55675;BME280;41562;44.330;23.802;2023-01-28T15:26:16;100267.66;;;9.53;86.88
55675;BME280;41562;44.330;23.802;2023-01-28T15:28:45;100263.44;;;6.37;92.40
55675;BME280;41562;44.330;23.802;2023-01-28T15:31:29;100260.41;;;4.75;100.00